Time;durP1;ratioP1;P1;durP2;ratioP2;P2;SDS_P1;SDS_P2;PMS_P1;PMS_P2;Temp;Humidity;BMP_temperature;BMP_pressure;BME280_temperature;BME280_humidity;BME280_pressure;Samples;Min_cycle;Max_cycle;Signal;HPM_P1;HPM_P2
2022/06/24 00:00:14;;;;;;;11.93;6.35;;;;;;;17.92;77.33;99250.46;1708061;82;21003;-66
2022/06/24 00:02:41;;;;;;;10.88;5.70;;;;;;;17.86;77.62;99251.37;1707853;84;21085;-66
2022/06/24 00:05:14;;;;;;;7.05;3.80;;;;;;;17.84;77.93;99247.37;1708735;83;21028;-66
2022/06/24 00:07:50;;;;;;;5.87;3.87;;;;;;;17.87;77.82;99250.78;1708507;84;22121;-66
2022/06/24 00:10:19;;;;;;;9.73;3.55;;;;;;;17.83;77.48;99255.49;1708475;84;21503;-66
2022/06/24 00:12:46;;;;;;;5.35;3.65;;;;;;;17.79;77.38;99263.83;1708663;83;21062;-66
2022/06/24 00:15:14;;;;;;;4.60;3.12;;;;;;;17.75;77.32;99263.77;1708087;84;21544;-66
2022/06/24 00:17:41;;;;;;;3.50;2.83;;;;;;;17.74;77.20;99262.14;1708486;84;21094;-66
2022/06/24 00:20:09;;;;;;;5.75;3.40;;;;;;;17.71;77.50;99267.08;1708630;83;21752;-66
2022/06/24 00:22:48;;;;;;;3.90;2.92;;;;;;;17.69;77.61;99264.47;1708021;84;21055;-66
2022/06/24 00:25:19;;;;;;;7.47;3.62;;;;;;;17.68;77.67;99265.62;1707667;82;21003;-66
2022/06/24 00:28:08;;;;;;;3.62;2.83;;;;;;;17.69;77.62;99270.04;1708432;84;21535;-66
2022/06/24 00:30:38;;;;;;;3.47;2.50;;;;;;;17.70;77.89;99265.48;1715332;82;21035;-66
2022/06/24 00:33:23;;;;;;;6.28;2.80;;;;;;;17.75;78.06;99262.37;1727069;83;21226;-66
2022/06/24 00:35:52;;;;;;;4.80;2.90;;;;;;;17.79;78.01;99268.00;1700791;83;21567;-67
2022/06/24 00:38:38;;;;;;;5.50;2.80;;;;;;;17.79;77.67;99263.83;1714668;83;21033;-66
2022/06/24 00:41:13;;;;;;;6.45;3.08;;;;;;;17.78;77.74;99260.81;1725783;83;21374;-65
2022/06/24 00:43:50;;;;;;;5.55;3.30;;;;;;;17.80;77.63;99266.81;1713924;82;21080;-66
2022/06/24 00:46:33;;;;;;;7.50;3.62;;;;;;;17.78;77.23;99264.98;1726156;81;21064;-65
2022/06/24 00:48:59;;;;;;;6.60;3.40;;;;;;;17.78;77.08;99266.96;1717997;82;21043;-66
2022/06/24 00:51:36;;;;;;;3.80;3.05;;;;;;;17.76;76.95;99263.97;1737515;81;21040;-65
2022/06/24 00:54:10;;;;;;;3.58;2.95;;;;;;;17.79;76.98;99261.62;1717794;82;21504;-66
2022/06/24 00:56:37;;;;;;;4.10;3.00;;;;;;;17.81;77.17;99260.66;1709261;82;21350;-66
2022/06/24 00:59:06;;;;;;;3.75;3.17;;;;;;;17.86;77.36;99263.13;1722105;82;21048;-66
2022/06/24 01:01:41;;;;;;;5.25;3.45;;;;;;;17.88;77.35;99253.77;1710298;82;21081;-66
2022/06/24 01:04:11;;;;;;;4.75;3.30;;;;;;;17.91;77.38;99253.05;1720747;81;21594;-66
2022/06/24 01:06:43;;;;;;;7.60;3.58;;;;;;;17.92;77.35;99260.22;1713911;82;21065;-66
2022/06/24 01:09:11;;;;;;;4.25;3.02;;;;;;;17.92;77.41;99266.37;1708619;82;21028;-66
2022/06/24 01:11:41;;;;;;;4.83;3.12;;;;;;;17.93;77.42;99245.09;1714833;82;21836;-66
2022/06/24 01:14:08;;;;;;;3.83;3.35;;;;;;;17.97;77.21;99236.78;1703809;82;21586;-66
2022/06/24 01:16:35;;;;;;;4.75;3.87;;;;;;;17.96;77.34;99252.69;1730503;82;21544;-66
2022/06/24 01:19:08;;;;;;;7.00;3.87;;;;;;;17.88;77.74;99248.20;1719197;82;21491;-67
2022/06/24 01:21:44;;;;;;;3.58;3.22;;;;;;;17.74;78.30;99258.58;1715676;82;21181;-66
2022/06/24 01:24:21;;;;;;;8.20;4.25;;;;;;;17.69;78.83;99272.22;1716891;82;21890;-66
2022/06/24 01:26:50;;;;;;;8.75;4.58;;;;;;;17.69;79.09;99281.97;1709051;82;21111;-66
2022/06/24 01:29:17;;;;;;;7.05;3.95;;;;;;;17.71;79.20;99273.23;1680753;84;21074;-67
2022/06/24 01:31:48;;;;;;;9.05;4.67;;;;;;;17.73;79.30;99267.52;1692652;83;21563;-66
2022/06/24 01:34:15;;;;;;;6.45;3.92;;;;;;;17.74;79.41;99265.54;1711769;82;21021;-66
2022/06/24 01:36:42;;;;;;;4.72;4.00;;;;;;;17.77;79.43;99259.21;1711542;82;21067;-66
2022/06/24 01:39:08;;;;;;;10.30;4.78;;;;;;;17.80;79.39;99254.28;1710690;83;21116;-66
2022/06/24 01:41:35;;;;;;;7.72;4.30;;;;;;;17.80;79.38;99262.63;1711447;83;21025;-66
2022/06/24 01:44:02;;;;;;;9.93;4.70;;;;;;;17.72;79.69;99268.70;1687635;83;21030;-66
2022/06/24 01:46:29;;;;;;;5.53;4.60;;;;;;;17.69;80.06;99263.86;1701984;83;21021;-66
2022/06/24 01:48:56;;;;;;;8.50;4.80;;;;;;;17.63;80.27;99259.22;1698785;84;21251;-66
2022/06/24 01:51:25;;;;;;;8.78;5.53;;;;;;;17.55;80.60;99239.98;1698764;84;21071;-65
2022/06/24 01:53:53;;;;;;;7.92;4.90;;;;;;;17.53;80.96;99233.39;1681769;84;21088;-66
2022/06/24 01:56:20;;;;;;;7.55;4.45;;;;;;;17.46;81.18;99227.12;1683809;84;21011;-66
2022/06/24 01:58:48;;;;;;;5.55;4.80;;;;;;;17.40;81.76;99232.20;1698467;84;21126;-65
2022/06/24 02:01:17;;;;;;;7.42;4.55;;;;;;;17.33;82.43;99229.91;1674598;85;21800;-66
2022/06/24 02:03:43;;;;;;;6.58;3.85;;;;;;;17.25;82.81;99238.13;1691411;84;21072;-65
2022/06/24 02:06:12;;;;;;;9.88;3.98;;;;;;;17.25;83.24;99242.89;1692918;84;21550;-66
2022/06/24 02:08:40;;;;;;;8.93;4.40;;;;;;;17.27;83.38;99237.18;1699887;83;21505;-66
2022/06/24 02:13:57;;;;;;;10.80;3.70;;;;;;;17.34;83.60;99242.64;1695352;84;21257;-65
2022/06/24 02:16:27;;;;;;;4.45;4.05;;;;;;;17.38;83.48;99239.33;1681973;84;21131;-67
2022/06/24 02:18:56;;;;;;;5.47;4.05;;;;;;;17.38;83.40;99237.33;1680146;83;21062;-66
2022/06/24 02:21:24;;;;;;;7.45;4.70;;;;;;;17.40;83.40;99243.34;1691411;84;21065;-66
2022/06/24 02:23:51;;;;;;;8.10;4.80;;;;;;;17.45;83.21;99243.60;1691596;84;21032;-65
2022/06/24 02:26:18;;;;;;;8.38;3.87;;;;;;;17.47;83.14;99237.08;1702864;81;21214;-66
2022/06/24 02:28:44;;;;;;;11.28;3.87;;;;;;;17.50;82.85;99239.72;1710391;83;21009;-66
2022/06/24 02:31:11;;;;;;;7.35;3.55;;;;;;;17.55;82.66;99237.20;1716184;82;21031;-66
2022/06/24 02:33:40;;;;;;;9.25;3.67;;;;;;;17.59;82.36;99245.00;1681068;84;21098;-66
2022/06/24 02:36:07;;;;;;;5.83;2.77;;;;;;;17.61;81.94;99246.83;1714469;83;21158;-67
2022/06/24 02:38:35;;;;;;;7.40;2.98;;;;;;;17.63;81.86;99249.47;1726656;83;21174;-66
2022/06/24 02:41:02;;;;;;;11.33;3.90;;;;;;;17.68;81.60;99248.33;1716730;82;21003;-68
2022/06/24 02:43:32;;;;;;;6.12;2.98;;;;;;;17.70;81.36;99244.59;1702003;83;21046;-66
2022/06/24 02:46:02;;;;;;;7.60;2.77;;;;;;;17.73;81.15;99249.41;1713826;83;21052;-67
2022/06/24 02:48:29;;;;;;;6.85;3.17;;;;;;;17.72;80.84;99247.81;1704515;83;21164;-66
2022/06/24 02:50:58;;;;;;;5.50;2.75;;;;;;;17.74;80.79;99243.25;1714477;83;21968;-65
2022/06/24 02:53:26;;;;;;;9.08;3.00;;;;;;;17.75;80.47;99246.24;1708380;84;21003;-66
2022/06/24 02:55:56;;;;;;;6.00;3.40;;;;;;;17.74;80.42;99246.04;1708508;84;21340;-65
2022/06/24 02:58:24;;;;;;;9.15;2.55;;;;;;;17.75;80.29;99248.45;1708515;82;21151;-66
2022/06/24 03:00:53;;;;;;;9.05;3.12;;;;;;;17.78;80.06;99248.85;1707969;84;21055;-66
2022/06/24 03:03:22;;;;;;;4.92;2.72;;;;;;;17.77;79.87;99250.86;1708216;83;21147;-67
2022/06/24 03:05:48;;;;;;;8.13;2.70;;;;;;;17.78;79.57;99253.03;1706580;84;21047;-67
2022/06/24 03:08:16;;;;;;;8.45;2.50;;;;;;;17.75;79.56;99251.23;1702105;82;21055;-66
2022/06/24 03:10:44;;;;;;;6.97;2.70;;;;;;;17.78;79.42;99250.24;1683963;82;21036;-67
2022/06/24 03:13:14;;;;;;;6.00;2.62;;;;;;;17.76;79.09;99249.23;1711034;82;21137;-66
2022/06/24 03:15:41;;;;;;;5.25;2.60;;;;;;;17.76;79.13;99250.04;1708264;84;21480;-66
2022/06/24 03:18:10;;;;;;;5.83;2.30;;;;;;;17.80;78.89;99252.07;1708584;84;21011;-65
2022/06/24 03:20:36;;;;;;;2.92;2.40;;;;;;;17.80;78.85;99245.11;1717986;82;21066;-67
2022/06/24 03:23:05;;;;;;;5.22;2.62;;;;;;;17.80;78.66;99246.50;1726987;83;21017;-65
2022/06/24 03:25:32;;;;;;;6.67;2.85;;;;;;;17.82;78.46;99251.92;1714470;83;21044;-67
2022/06/24 03:28:04;;;;;;;7.55;3.33;;;;;;;17.83;78.07;99249.92;1699813;83;21220;-65
2022/06/24 03:30:32;;;;;;;7.25;2.77;;;;;;;17.81;77.97;99247.52;1709864;83;21067;-65
2022/06/24 03:33:00;;;;;;;5.70;2.95;;;;;;;17.83;77.78;99250.73;1710812;83;21073;-66
2022/06/24 03:35:27;;;;;;;2.90;2.37;;;;;;;17.83;77.81;99248.53;1713995;83;21047;-65
2022/06/24 03:37:53;;;;;;;7.70;2.33;;;;;;;17.85;77.78;99246.98;1726418;83;21087;-67
2022/06/24 03:40:22;;;;;;;6.37;2.50;;;;;;;17.92;77.62;99249.65;1710187;83;21038;-66
2022/06/24 03:42:48;;;;;;;6.70;2.55;;;;;;;17.97;77.43;99243.17;1713289;83;21616;-65
2022/06/24 03:45:14;;;;;;;5.90;2.90;;;;;;;18.03;77.04;99243.66;1726579;81;20988;-66
2022/06/24 03:47:41;;;;;;;4.03;2.45;;;;;;;18.04;76.61;99244.44;1711733;83;21056;-66
2022/06/24 03:50:08;;;;;;;12.03;3.12;;;;;;;18.05;76.57;99241.88;1714355;83;21488;-64
2022/06/24 03:52:35;;;;;;;3.67;2.62;;;;;;;18.06;76.35;99247.07;1726645;83;21476;-66
2022/06/24 03:55:01;;;;;;;5.30;2.33;;;;;;;18.08;76.27;99248.09;1711908;83;21490;-66
2022/06/24 03:57:29;;;;;;;3.83;2.30;;;;;;;18.10;75.98;99248.52;1714155;83;21046;-65
2022/06/24 03:59:56;;;;;;;4.47;2.20;;;;;;;18.10;76.08;99246.52;1722736;83;21084;-66
2022/06/24 04:02:23;;;;;;;3.70;2.33;;;;;;;18.10;75.83;99248.52;1711689;83;21044;-66
2022/06/24 04:04:49;;;;;;;5.92;2.47;;;;;;;18.12;75.98;99246.94;1714055;82;21109;-67
2022/06/24 04:07:16;;;;;;;4.85;2.37;;;;;;;18.17;75.07;99245.83;1726915;83;21068;-67
2022/06/24 04:09:43;;;;;;;3.85;2.37;;;;;;;18.18;74.86;99257.21;1711070;83;21088;-66
2022/06/24 04:12:11;;;;;;;4.87;2.08;;;;;;;18.24;74.85;99257.66;1713414;83;21067;-67
2022/06/24 04:17:15;;;;;;;5.28;2.10;;;;;;;18.39;74.11;99257.85;1690278;83;21560;-68
2022/06/24 04:19:41;;;;;;;5.37;2.00;;;;;;;18.42;73.41;99251.52;1712377;81;21024;-66
2022/06/24 04:22:08;;;;;;;8.25;2.60;;;;;;;18.43;73.32;99244.16;1710472;83;21044;-65
2022/06/24 04:24:35;;;;;;;7.15;2.40;;;;;;;18.43;73.09;99246.95;1714259;83;21060;-67
2022/06/24 04:27:02;;;;;;;11.08;2.55;;;;;;;18.44;72.81;99250.55;1708221;83;21082;-66
2022/06/24 04:29:28;;;;;;;7.80;2.30;;;;;;;18.42;72.85;99252.91;1710292;83;21153;-66
2022/06/24 04:31:55;;;;;;;9.70;2.65;;;;;;;18.44;72.68;99255.52;1710298;83;21056;-66
2022/06/24 04:34:23;;;;;;;8.30;2.47;;;;;;;18.47;72.58;99245.02;1710337;83;21083;-66
2022/06/24 04:36:49;;;;;;;2.05;1.85;;;;;;;18.55;72.47;99251.46;1710351;83;21082;-67
2022/06/24 04:39:15;;;;;;;4.35;2.10;;;;;;;18.61;71.85;99256.91;1709961;83;21079;-66
2022/06/24 04:41:42;;;;;;;8.38;2.33;;;;;;;18.63;71.69;99261.31;1709511;83;21164;-66
2022/06/24 04:44:08;;;;;;;3.55;2.05;;;;;;;18.63;71.26;99260.70;1710236;83;20992;-67
2022/06/24 04:46:35;;;;;;;8.43;2.25;;;;;;;18.67;71.47;99267.14;1710337;83;21036;-65
2022/06/24 04:49:02;;;;;;;5.67;2.27;;;;;;;18.72;71.36;99262.61;1709685;83;21066;-66
2022/06/24 04:51:28;;;;;;;3.27;1.82;;;;;;;18.79;71.16;99263.86;1710300;83;21000;-67
2022/06/24 04:53:54;;;;;;;4.00;2.17;;;;;;;18.86;70.44;99272.31;1710383;83;21151;-65
2022/06/24 04:56:22;;;;;;;4.03;1.85;;;;;;;18.91;69.58;99274.77;1709935;83;21464;-67
2022/06/24 04:58:48;;;;;;;7.65;2.10;;;;;;;18.96;69.59;99268.02;1710532;83;21116;-67
2022/06/24 05:01:17;;;;;;;3.70;2.17;;;;;;;19.02;69.00;99274.06;1710038;83;21078;-68
2022/06/24 05:03:44;;;;;;;7.00;2.25;;;;;;;19.03;68.40;99277.06;1709981;83;21561;-65
2022/06/24 05:06:10;;;;;;;4.45;1.90;;;;;;;19.07;68.58;99279.30;1710508;83;21777;-67
2022/06/24 05:08:37;;;;;;;3.77;2.10;;;;;;;19.11;68.57;99280.16;1709649;83;21043;-66
2022/06/24 05:11:05;;;;;;;5.03;2.42;;;;;;;19.15;68.64;99278.21;1709681;83;21545;-65
2022/06/24 05:13:32;;;;;;;7.08;2.25;;;;;;;19.19;68.21;99278.25;1690603;82;21037;-66
2022/06/24 05:16:02;;;;;;;3.87;2.67;;;;;;;19.23;67.81;99276.89;1707986;83;21509;-66
2022/06/24 05:18:32;;;;;;;3.17;2.40;;;;;;;19.27;67.41;99279.09;1726773;83;21040;-66
2022/06/24 05:20:58;;;;;;;12.45;2.10;;;;;;;19.32;67.20;99282.35;1700641;84;21549;-66
2022/06/24 05:23:25;;;;;;;6.62;2.67;;;;;;;19.38;66.56;99278.59;1727073;83;21604;-66
2022/06/24 05:25:55;;;;;;;6.62;2.27;;;;;;;19.40;66.29;99283.20;1701694;83;21048;-66
2022/06/24 05:28:22;;;;;;;9.73;2.30;;;;;;;19.46;66.50;99280.86;1704873;82;21088;-68
2022/06/24 05:30:58;;;;;;;2.83;2.22;;;;;;;19.51;65.78;99279.70;1682489;84;21090;-66
2022/06/24 05:33:24;;;;;;;10.08;2.30;;;;;;;19.52;65.16;99283.50;1694910;83;21043;-65
2022/06/24 05:35:55;;;;;;;7.55;2.20;;;;;;;19.55;64.98;99286.13;1689313;84;21378;-66
2022/06/24 05:38:24;;;;;;;3.72;2.37;;;;;;;19.59;65.53;99285.55;1685043;84;21118;-66
2022/06/24 05:40:52;;;;;;;4.05;2.02;;;;;;;19.65;65.25;99293.76;1688358;84;21646;-65
2022/06/24 05:43:22;;;;;;;4.40;2.17;;;;;;;19.70;65.14;99294.02;1696677;84;21146;-67
2022/06/24 05:45:49;;;;;;;2.98;2.12;;;;;;;19.77;64.77;99294.05;1696949;84;21090;-67
2022/06/24 05:48:16;;;;;;;6.30;2.33;;;;;;;19.86;65.13;99292.92;1696532;84;21533;-67
2022/06/24 05:50:43;;;;;;;2.33;1.82;;;;;;;19.95;64.62;99300.36;1695464;83;21033;-66
2022/06/24 05:55:59;;;;;;;2.55;1.98;;;;;;;20.12;64.58;99301.69;1697143;83;21584;-66
2022/06/24 05:58:28;;;;;;;5.53;2.70;;;;;;;20.17;63.48;99304.11;1702699;83;21328;-65
2022/06/24 06:00:55;;;;;;;8.90;2.60;;;;;;;20.22;63.76;99303.52;1707203;83;21051;-67
2022/06/24 06:03:23;;;;;;;5.30;2.35;;;;;;;20.27;62.87;99306.75;1711352;83;21051;-66
2022/06/24 06:05:51;;;;;;;9.95;2.50;;;;;;;20.28;62.24;99305.55;1695325;83;21063;-66
2022/06/24 06:08:19;;;;;;;7.20;2.58;;;;;;;20.32;62.62;99304.17;1708933;83;21121;-66
2022/06/24 06:10:45;;;;;;;2.83;2.10;;;;;;;20.35;61.75;99303.38;1687135;83;21091;-66
2022/06/24 06:13:12;;;;;;;5.60;2.52;;;;;;;20.37;61.82;99310.80;1699098;83;21143;-65
2022/06/24 06:15:40;;;;;;;31.85;15.15;;;;;;;20.41;62.03;99301.83;1711190;83;21116;-67
2022/06/24 06:18:09;;;;;;;34.78;17.25;;;;;;;20.42;60.31;99299.84;1696934;84;21068;-66
2022/06/24 06:20:37;;;;;;;12.30;5.60;;;;;;;20.42;61.02;99303.42;1709275;83;21952;-65
2022/06/24 06:23:04;;;;;;;7.15;3.55;;;;;;;20.48;61.29;99302.45;1689372;83;21091;-65
2022/06/24 06:25:31;;;;;;;4.87;3.00;;;;;;;20.55;60.46;99302.50;1688587;84;21122;-66
2022/06/24 06:27:58;;;;;;;9.58;2.62;;;;;;;20.63;60.71;99298.30;1730498;81;21023;-65
2022/06/24 06:30:24;;;;;;;2.83;2.20;;;;;;;20.73;60.71;99302.33;1751389;81;21093;-65
2022/06/24 06:32:52;;;;;;;3.77;2.10;;;;;;;20.83;60.64;99294.56;1704760;83;21162;-66
2022/06/24 06:35:19;;;;;;;7.00;2.05;;;;;;;20.91;60.27;99300.37;1748636;81;21063;-66
2022/06/24 06:37:47;;;;;;;8.58;2.37;;;;;;;20.95;59.86;99305.23;1729264;82;21039;-67
2022/06/24 06:40:14;;;;;;;4.22;2.45;;;;;;;20.97;59.60;99305.61;1716942;82;21066;-65
2022/06/24 06:42:41;;;;;;;6.97;2.75;;;;;;;20.98;58.21;99307.23;1716303;82;21068;-65
2022/06/24 06:45:10;;;;;;;4.60;2.80;;;;;;;21.01;58.60;99314.84;1711004;82;21090;-65
2022/06/24 06:47:38;;;;;;;3.17;2.30;;;;;;;21.04;58.81;99319.05;1711758;82;21043;-66
2022/06/24 06:50:06;;;;;;;3.70;2.40;;;;;;;21.08;59.34;99324.66;1705709;83;21050;-66
2022/06/24 06:52:32;;;;;;;8.35;2.58;;;;;;;21.10;58.82;99323.64;1707343;82;21554;-66
2022/06/24 06:55:02;;;;;;;3.52;2.55;;;;;;;21.10;58.18;99327.06;1706380;83;21513;-65
2022/06/24 06:57:28;;;;;;;4.17;2.98;;;;;;;21.07;57.27;99326.46;1714991;82;22012;-65
2022/06/24 06:59:56;;;;;;;2.70;2.08;;;;;;;21.03;57.05;99330.03;1706799;84;21054;-66
2022/06/24 07:02:25;;;;;;;3.37;2.33;;;;;;;21.05;57.55;99333.86;1706623;84;21495;-66
2022/06/24 07:04:52;;;;;;;10.53;2.85;;;;;;;21.06;57.47;99328.45;1706889;83;21035;-66
2022/06/24 07:07:18;;;;;;;5.15;3.15;;;;;;;21.10;57.46;99328.46;1706868;84;21122;-66
2022/06/24 07:09:46;;;;;;;3.40;2.95;;;;;;;21.13;57.97;99331.28;1705028;83;21069;-66
2022/06/24 07:12:13;;;;;;;4.90;2.60;;;;;;;21.15;57.05;99332.27;1714024;83;21501;-65
2022/06/24 07:14:42;;;;;;;3.05;2.70;;;;;;;21.17;57.67;99329.88;1708897;83;21075;-66
2022/06/24 07:17:11;;;;;;;6.08;2.87;;;;;;;21.24;58.01;99325.67;1708682;83;21059;-66
2022/06/24 07:19:37;;;;;;;4.17;2.80;;;;;;;21.34;58.79;99331.08;1701536;84;21016;-65
2022/06/24 07:22:07;;;;;;;13.18;2.75;;;;;;;21.44;58.56;99327.30;1703513;84;21062;-66
2022/06/24 07:24:36;;;;;;;7.35;3.02;;;;;;;21.56;58.21;99322.70;1703757;84;21031;-66
2022/06/24 07:27:08;;;;;;;4.00;2.85;;;;;;;21.63;57.88;99326.89;1707496;82;21569;-66
2022/06/24 07:29:36;;;;;;;9.35;3.30;;;;;;;21.71;57.92;99326.89;1706405;84;21091;-66
2022/06/24 07:32:04;;;;;;;5.92;2.95;;;;;;;21.75;57.53;99328.48;1706059;84;21552;-68
2022/06/24 07:34:33;;;;;;;4.60;2.42;;;;;;;21.81;57.54;99327.52;1706787;84;21120;-66
2022/06/24 07:37:00;;;;;;;6.55;2.85;;;;;;;21.84;57.33;99330.91;1705846;83;21786;-67
2022/06/24 07:39:28;;;;;;;8.95;3.50;;;;;;;21.88;57.59;99326.11;1705355;82;21083;-66
2022/06/24 07:41:57;;;;;;;18.25;3.60;;;;;;;21.89;57.24;99326.30;1706712;84;21060;-67
2022/06/24 07:44:23;;;;;;;8.48;3.08;;;;;;;21.94;56.97;99331.31;1706340;84;21511;-67
2022/06/24 07:46:50;;;;;;;6.62;3.02;;;;;;;21.95;56.67;99335.12;1706571;84;21775;-67
2022/06/24 07:49:18;;;;;;;9.33;3.20;;;;;;;21.97;55.65;99336.11;1727148;82;21021;-66
2022/06/24 07:51:45;;;;;;;5.37;3.00;;;;;;;22.01;55.61;99331.28;1700595;84;21075;-66
2022/06/24 07:54:11;;;;;;;7.47;3.00;;;;;;;22.05;55.12;99327.88;1726805;83;21091;-67
2022/06/24 07:56:56;;;;;;;11.70;2.92;;;;;;;22.07;54.52;99337.30;1702167;83;21025;-67
2022/06/24 07:59:31;;;;;;;5.62;3.25;;;;;;;22.07;54.64;99336.70;1723947;81;21332;-65
2022/06/24 08:01:58;;;;;;;9.25;3.30;;;;;;;22.06;54.49;99335.08;1725717;81;21032;-65
2022/06/24 08:04:25;;;;;;;7.40;3.05;;;;;;;22.05;54.47;99339.10;1706375;83;20994;-66
2022/06/24 08:06:52;;;;;;;11.88;3.52;;;;;;;22.03;54.29;99331.69;1725901;83;21056;-65
2022/06/24 08:09:20;;;;;;;4.78;3.02;;;;;;;22.02;54.45;99334.30;1710781;83;21084;-66
2022/06/24 08:11:49;;;;;;;9.30;3.00;;;;;;;22.05;54.39;99331.28;1704192;83;21252;-65
2022/06/24 08:14:17;;;;;;;20.37;3.62;;;;;;;22.07;54.35;99330.28;1729512;81;21107;-65
2022/06/24 08:16:43;;;;;;;5.25;2.58;;;;;;;22.06;54.05;99329.47;1702689;82;21480;-66
2022/06/24 08:19:10;;;;;;;10.00;3.15;;;;;;;22.09;53.70;99323.67;1699530;83;21098;-66
2022/06/24 08:21:37;;;;;;;8.30;2.67;;;;;;;22.13;53.88;99332.86;1726622;81;21068;-66
2022/06/24 08:24:05;;;;;;;11.03;2.72;;;;;;;22.18;54.38;99327.47;1703072;82;21111;-66
2022/06/24 08:26:32;;;;;;;6.45;2.83;;;;;;;22.23;54.53;99326.42;1718056;82;21592;-66
2022/06/24 08:28:59;;;;;;;5.58;3.35;;;;;;;22.26;54.26;99334.66;1699820;83;22317;-65
2022/06/24 08:31:25;;;;;;;4.20;3.20;;;;;;;22.31;54.78;99339.85;1715477;83;21541;-65
2022/06/24 08:33:51;;;;;;;10.75;3.47;;;;;;;22.37;53.94;99329.80;1723838;83;21568;-65
2022/06/24 08:36:24;;;;;;;6.72;3.30;;;;;;;22.43;54.23;99329.38;1731984;81;21611;-66
2022/06/24 08:38:50;;;;;;;10.32;3.75;;;;;;;22.48;53.84;99333.95;1711923;83;20938;-66
2022/06/24 08:41:21;;;;;;;9.60;3.00;;;;;;;22.56;53.16;99334.74;1717471;83;21044;-66
2022/06/24 08:43:47;;;;;;;7.80;3.12;;;;;;;22.61;53.17;99334.35;1715612;83;21123;-66
2022/06/24 08:46:14;;;;;;;7.83;3.52;;;;;;;22.67;52.96;99333.30;1729027;82;21055;-66
2022/06/24 08:48:41;;;;;;;8.60;3.30;;;;;;;22.75;53.28;99329.87;1727524;81;21143;-65
2022/06/24 08:51:08;;;;;;;7.03;3.62;;;;;;;22.83;52.73;99332.03;1712205;83;21550;-65
2022/06/24 08:53:35;;;;;;;9.65;3.77;;;;;;;22.87;52.78;99330.02;1677840;83;21016;-66
2022/06/24 08:56:03;;;;;;;8.78;3.58;;;;;;;22.92;52.21;99332.99;1728594;83;21062;-66
2022/06/24 08:58:29;;;;;;;9.23;3.52;;;;;;;22.97;52.48;99333.38;1728527;82;21039;-66
2022/06/24 09:00:56;;;;;;;5.87;2.98;;;;;;;23.07;52.20;99328.09;1701001;83;21150;-66
2022/06/24 09:03:22;;;;;;;4.37;2.70;;;;;;;23.12;52.93;99326.84;1716673;82;21206;-66
2022/06/24 09:05:48;;;;;;;5.53;3.15;;;;;;;23.17;52.44;99329.22;1728971;83;21066;-65
2022/06/24 09:08:16;;;;;;;4.97;2.95;;;;;;;23.24;53.07;99319.34;1728707;83;21048;-66
2022/06/24 09:11:06;;;;;;;6.25;2.80;;;;;;;23.31;51.98;99323.52;1728400;82;21028;-66
2022/06/24 09:13:21;;;;;;;4.10;2.90;;;;;;;23.36;52.25;99316.65;1683908;83;21156;-66
2022/06/24 09:15:53;;;;;;;4.35;3.10;;;;;;;23.42;51.95;99318.45;1728471;83;21032;-66
2022/06/24 09:18:23;;;;;;;7.35;3.58;;;;;;;23.49;52.40;99314.78;1728778;83;21560;-66
2022/06/24 09:20:52;;;;;;;7.10;3.40;;;;;;;23.56;52.27;99311.92;1729034;83;21075;-66
2022/06/24 09:23:18;;;;;;;5.35;2.83;;;;;;;23.62;51.32;99306.03;1713213;83;21005;-67
2022/06/24 09:25:50;;;;;;;9.98;4.25;;;;;;;23.77;51.18;99303.08;1728801;82;21132;-66
2022/06/24 09:28:32;;;;;;;9.50;3.22;;;;;;;23.95;50.96;99304.33;1726941;81;21501;-66
2022/06/24 09:31:07;;;;;;;6.05;3.33;;;;;;;24.11;50.89;99301.52;1729104;82;21039;-65
2022/06/24 09:33:49;;;;;;;4.87;3.20;;;;;;;24.27;50.23;99303.20;1725479;83;21083;-66
2022/06/24 09:36:15;;;;;;;6.08;2.77;;;;;;;24.42;49.81;99298.80;1698791;83;21086;-65
2022/06/24 09:39:02;;;;;;;8.35;3.33;;;;;;;24.58;49.40;99289.75;1728382;83;21245;-67
2022/06/24 09:41:30;;;;;;;11.30;3.17;;;;;;;24.70;49.58;99293.22;1721031;83;21013;-65
2022/06/24 09:44:01;;;;;;;5.67;2.98;;;;;;;24.83;48.78;99295.64;1728850;83;21052;-66
2022/06/24 09:46:27;;;;;;;14.07;3.75;;;;;;;24.97;47.91;99289.64;1728280;83;21523;-66
2022/06/24 09:49:03;;;;;;;6.28;2.72;;;;;;;25.07;47.16;99293.52;1725389;83;21059;-66
2022/06/24 09:51:32;;;;;;;12.78;3.22;;;;;;;25.16;47.37;99282.52;1711670;82;21144;-65
2022/06/24 09:53:58;;;;;;;6.65;3.08;;;;;;;25.26;46.30;99290.61;1710382;83;21052;-66
2022/06/24 09:56:25;;;;;;;9.30;3.50;;;;;;;25.26;45.05;99287.80;1710291;83;21013;-66
2022/06/24 10:01:38;;;;;;;4.87;2.95;;;;;;;25.02;44.72;99299.84;1725750;81;21017;-67
2022/06/24 10:04:10;;;;;;;5.72;3.30;;;;;;;24.90;44.53;99297.56;1729643;81;21768;-66
2022/06/24 10:06:40;;;;;;;4.83;3.20;;;;;;;24.83;44.85;99289.20;1724277;81;20999;-65
2022/06/24 10:09:07;;;;;;;7.87;3.10;;;;;;;24.77;44.98;99291.09;1699300;83;21058;-67
2022/06/24 10:11:35;;;;;;;5.20;3.10;;;;;;;24.75;45.26;99294.96;1718039;83;21137;-66
2022/06/24 10:14:01;;;;;;;8.50;4.45;;;;;;;24.76;45.50;99287.28;1720195;83;21572;-68
2022/06/24 10:16:31;;;;;;;6.72;2.92;;;;;;;24.75;45.50;99288.52;1711657;83;21551;-66
2022/06/24 10:18:59;;;;;;;4.28;3.20;;;;;;;24.79;45.93;99291.47;1708796;83;21066;-67
2022/06/24 10:21:25;;;;;;;7.78;2.98;;;;;;;24.77;45.33;99295.94;1713871;83;21003;-66
2022/06/24 10:23:52;;;;;;;11.45;3.50;;;;;;;24.75;44.91;99304.81;1718041;83;21033;-66
2022/06/24 10:26:30;;;;;;;6.67;3.33;;;;;;;24.69;44.95;99296.63;1720190;82;21345;-66
2022/06/24 10:29:09;;;;;;;6.87;3.33;;;;;;;24.66;45.20;99298.89;1717670;83;21649;-67
2022/06/24 10:31:48;;;;;;;6.35;3.27;;;;;;;24.65;45.88;99290.27;1718344;82;21007;-67
2022/06/24 10:34:28;;;;;;;12.15;3.00;;;;;;;24.64;45.42;99292.87;1708833;82;21056;-65
2022/06/24 10:37:02;;;;;;;7.65;3.25;;;;;;;24.63;45.57;99289.28;1714691;82;21378;-65
2022/06/24 10:39:30;;;;;;;5.60;2.83;;;;;;;24.60;46.03;99280.89;1719677;82;21043;-66
2022/06/24 10:42:06;;;;;;;6.53;3.12;;;;;;;24.55;45.34;99284.95;1719472;82;21185;-66
2022/06/24 10:44:38;;;;;;;5.65;2.95;;;;;;;24.52;46.05;99286.60;1720610;83;21099;-65
2022/06/24 10:47:14;;;;;;;9.05;3.00;;;;;;;24.59;45.96;99284.30;1719557;83;21055;-66
2022/06/24 10:50:01;;;;;;;6.33;3.15;;;;;;;24.68;46.51;99282.38;1706779;82;21318;-66
2022/06/24 10:52:50;;;;;;;6.97;3.77;;;;;;;24.86;46.68;99283.53;1707582;84;21032;-65
2022/06/24 10:55:29;;;;;;;3.42;2.95;;;;;;;25.06;45.15;99269.39;1710401;83;21218;-66
2022/06/24 10:58:08;;;;;;;6.08;4.12;;;;;;;25.21;45.75;99271.38;1719694;83;21515;-67
2022/06/24 11:00:48;;;;;;;3.55;2.67;;;;;;;25.30;45.39;99270.83;1709919;83;21089;-67
2022/06/24 11:03:13;;;;;;;3.52;3.15;;;;;;;25.29;43.76;99268.62;1697977;83;21081;-66
2022/06/24 11:05:45;;;;;;;6.10;2.62;;;;;;;25.15;43.92;99267.63;1707092;83;21072;-66
2022/06/24 11:08:16;;;;;;;6.62;3.05;;;;;;;25.04;44.49;99260.73;1682929;83;21726;-67
2022/06/24 11:10:43;;;;;;;13.93;3.90;;;;;;;25.08;44.55;99269.77;1695778;83;22257;-65
2022/06/24 11:13:11;;;;;;;7.62;3.00;;;;;;;25.21;44.59;99266.54;1703294;83;21077;-65
2022/06/24 11:15:42;;;;;;;16.80;3.83;;;;;;;25.36;44.82;99267.70;1699190;83;21110;-66
2022/06/24 11:18:17;;;;;;;3.22;2.47;;;;;;;25.47;43.50;99271.76;1710117;82;21040;-66
2022/06/24 11:20:55;;;;;;;11.00;2.92;;;;;;;25.46;43.07;99269.54;1706925;82;21514;-65
2022/06/24 11:23:26;;;;;;;11.70;3.12;;;;;;;25.37;43.83;99276.33;1705932;82;21116;-66
2022/06/24 11:26:02;;;;;;;7.30;3.05;;;;;;;25.30;43.33;99275.06;1709804;82;21032;-66
2022/06/24 11:28:37;;;;;;;6.08;3.17;;;;;;;25.29;43.54;99267.20;1708540;84;21012;-67
2022/06/24 11:31:33;;;;;;;4.53;2.92;;;;;;;25.35;45.04;99267.52;1684990;83;21069;-65
2022/06/24 11:34:05;;;;;;;;;;;;;;;25.50;44.36;99261.80;1708875;82;21099;-67
2022/06/24 11:36:36;;;;;;;5.05;2.55;;;;;;;25.64;44.13;99257.19;1726173;82;20223;-67
2022/06/24 11:39:06;;;;;;;5.35;3.20;;;;;;;25.64;43.16;99247.31;1725959;82;21074;-65
2022/06/24 11:41:36;;;;;;;9.95;3.92;;;;;;;25.57;42.91;99246.00;1724100;82;21568;-67
2022/06/24 11:44:05;;;;;;;9.75;3.08;;;;;;;25.48;43.68;99260.05;1697722;84;21580;-68
2022/06/24 11:46:32;;;;;;;7.80;3.15;;;;;;;25.49;44.54;99250.35;1689140;83;21323;-68
2022/06/24 11:49:11;;;;;;;8.25;3.30;;;;;;;25.59;44.32;99247.78;1699318;84;21027;-66
2022/06/24 11:51:43;;;;;;;6.47;3.65;;;;;;;25.67;43.97;99257.73;1709113;82;21057;-67